Time;durP1;ratioP1;P1;durP2;ratioP2;P2;SDS_P1;SDS_P2;PMS_P1;PMS_P2;Temp;Humidity;BMP_temperature;BMP_pressure;BME280_temperature;BME280_humidity;BME280_pressure;Samples;Min_cycle;Max_cycle;Signal;HPM_P1;HPM_P2
2022/02/23 00:01:39;;;;;;;3.78;2.08;;;6.10;99.90;;;;;;5009780;28;20037;-79
2022/02/23 00:04:05;;;;;;;4.95;1.88;;;6.10;99.90;;;;;;5010091;28;20037;-79
2022/02/23 00:06:31;;;;;;;4.75;1.75;;;6.10;99.90;;;;;;5009584;28;20041;-78
2022/02/23 00:08:58;;;;;;;5.95;1.85;;;6.10;99.90;;;;;;5010155;28;20030;-79
2022/02/23 00:11:24;;;;;;;7.70;2.40;;;6.10;99.90;;;;;;5009355;28;20034;-78
2022/02/23 00:13:50;;;;;;;16.10;2.20;;;6.10;99.90;;;;;;5009882;28;20030;-78
2022/02/23 00:16:16;;;;;;;9.35;2.90;;;6.10;99.90;;;;;;5009605;28;20082;-78
2022/02/23 00:18:43;;;;;;;4.13;1.90;;;6.10;99.90;;;;;;4992616;28;20046;-78
2022/02/23 00:21:09;;;;;;;6.53;1.98;;;6.10;99.90;;;;;;5018999;28;20033;-78
2022/02/23 00:23:35;;;;;;;9.82;2.70;;;6.20;99.90;;;;;;5010126;28;20030;-78
2022/02/23 00:26:01;;;;;;;4.38;1.85;;;6.20;99.90;;;;;;4992598;28;20042;-79
2022/02/23 00:28:28;;;;;;;5.65;1.70;;;6.20;99.90;;;;;;5009372;28;20037;-79
2022/02/23 00:30:54;;;;;;;16.30;2.90;;;6.10;99.90;;;;;;5010079;28;20030;-78
2022/02/23 00:33:20;;;;;;;5.88;2.47;;;6.20;99.90;;;;;;5009326;28;20037;-78
2022/02/23 00:35:46;;;;;;;4.35;2.33;;;6.20;99.90;;;;;;5009412;28;20038;-78
2022/02/23 00:38:12;;;;;;;10.48;2.15;;;6.20;99.90;;;;;;5009855;28;20195;-78
2022/02/23 00:40:39;;;;;;;5.65;2.83;;;6.20;99.90;;;;;;5008979;28;20045;-78
2022/02/23 00:43:06;;;;;;;11.38;3.25;;;6.20;99.90;;;;;;5009508;28;20041;-78
2022/02/23 00:45:33;;;;;;;4.25;2.13;;;6.20;99.90;;;;;;5011305;28;20026;-78
2022/02/23 00:47:59;;;;;;;8.55;3.03;;;6.10;99.90;;;;;;5013399;28;20041;-78
2022/02/23 00:50:25;;;;;;;10.95;2.97;;;6.10;99.90;;;;;;4994983;28;20041;-78
2022/02/23 00:52:52;;;;;;;6.68;2.30;;;6.00;99.90;;;;;;5013168;28;20029;-78
2022/02/23 00:55:18;;;;;;;9.07;2.47;;;6.00;99.90;;;;;;5013592;28;20030;-78
2022/02/23 00:57:44;;;;;;;8.65;3.17;;;6.00;99.90;;;;;;5012340;28;20034;-77
2022/02/23 01:00:10;;;;;;;5.63;2.33;;;6.00;99.90;;;;;;5013234;28;20030;-78
2022/02/23 01:02:39;;;;;;;6.47;2.83;;;6.00;99.90;;;;;;5012357;28;20030;-77
2022/02/23 01:05:05;;;;;;;11.80;2.60;;;6.00;99.90;;;;;;5012716;28;20034;-77
2022/02/23 01:07:32;;;;;;;16.42;3.28;;;5.90;99.90;;;;;;5011502;28;20053;-77
2022/02/23 01:09:58;;;;;;;9.52;2.42;;;5.90;99.90;;;;;;5012734;28;20026;-78
2022/02/23 01:12:24;;;;;;;9.43;3.33;;;5.90;99.90;;;;;;5012408;28;20042;-77
2022/02/23 01:14:50;;;;;;;8.63;3.92;;;5.90;99.90;;;;;;4994880;28;20050;-77
2022/02/23 01:17:16;;;;;;;6.32;4.05;;;5.80;99.90;;;;;;5012683;28;20049;-77
2022/02/23 01:19:43;;;;;;;11.52;3.90;;;5.80;99.90;;;;;;5012311;28;20038;-78
2022/02/23 01:22:09;;;;;;;12.38;3.50;;;5.70;99.90;;;;;;5012565;28;20030;-78
2022/02/23 01:24:35;;;;;;;8.18;3.20;;;5.70;99.90;;;;;;5012130;28;20026;-77
2022/02/23 01:27:02;;;;;;;13.27;3.30;;;5.70;99.90;;;;;;4995003;28;20510;-77
2022/02/23 01:29:28;;;;;;;14.10;3.72;;;5.70;99.90;;;;;;5011333;28;20046;-78
2022/02/23 01:31:54;;;;;;;8.95;3.22;;;5.70;99.90;;;;;;4994556;28;20057;-78
2022/02/23 01:34:21;;;;;;;9.77;3.00;;;5.70;99.90;;;;;;5012197;28;20382;-77
2022/02/23 01:36:47;;;;;;;8.70;2.80;;;5.70;99.90;;;;;;5012290;28;20037;-77
2022/02/23 01:39:13;;;;;;;8.15;2.92;;;5.60;99.90;;;;;;5012653;28;20033;-77
2022/02/23 01:41:39;;;;;;;13.05;3.13;;;5.60;99.90;;;;;;5012889;28;20034;-78
2022/02/23 01:44:05;;;;;;;5.82;2.55;;;5.60;99.90;;;;;;5012495;28;20034;-77
2022/02/23 01:46:32;;;;;;;12.45;2.72;;;5.50;99.90;;;;;;5011398;28;20391;-78
2022/02/23 01:48:58;;;;;;;6.13;2.25;;;5.40;99.90;;;;;;4994378;28;20050;-77
2022/02/23 01:51:24;;;;;;;4.53;1.98;;;5.40;99.90;;;;;;4993815;28;20038;-78
2022/02/23 01:53:51;;;;;;;6.97;2.20;;;5.20;99.90;;;;;;5011782;28;20046;-78
2022/02/23 01:56:17;;;;;;;6.40;3.03;;;5.20;99.90;;;;;;5011208;28;20042;-78
2022/02/23 01:58:43;;;;;;;7.22;2.15;;;5.10;99.90;;;;;;5011539;28;20639;-77
2022/02/23 02:01:13;;;;;;;7.82;2.78;;;5.00;99.90;;;;;;5012177;28;20045;-78
2022/02/23 02:03:39;;;;;;;5.10;2.83;;;5.10;99.90;;;;;;5011153;28;20030;-77
2022/02/23 02:06:05;;;;;;;4.78;2.50;;;5.20;99.90;;;;;;5011783;28;20042;-78
2022/02/23 02:08:31;;;;;;;8.80;3.25;;;5.20;99.90;;;;;;5011570;28;20030;-77
2022/02/23 02:10:57;;;;;;;16.23;3.85;;;5.20;99.90;;;;;;5011854;28;20038;-78
2022/02/23 02:13:24;;;;;;;10.57;3.08;;;5.20;99.90;;;;;;4994105;28;20045;-78
2022/02/23 02:15:50;;;;;;;14.27;3.47;;;5.10;99.90;;;;;;4994233;28;20050;-77
2022/02/23 02:18:16;;;;;;;7.15;3.75;;;5.10;99.90;;;;;;5012060;28;20041;-78
2022/02/23 02:20:42;;;;;;;12.88;3.90;;;5.10;99.90;;;;;;4994089;28;20363;-78
2022/02/23 02:23:09;;;;;;;6.47;3.88;;;5.10;99.90;;;;;;5011769;28;20026;-78
2022/02/23 02:25:35;;;;;;;7.72;3.78;;;5.10;99.90;;;;;;5011518;28;20030;-77
2022/02/23 02:28:04;;;;;;;10.32;3.75;;;5.20;99.90;;;;;;5012004;28;20042;-78
2022/02/23 02:30:30;;;;;;;9.23;3.72;;;5.20;99.90;;;;;;5012309;28;20038;-78
2022/02/23 02:32:57;;;;;;;11.93;4.10;;;5.20;99.90;;;;;;5012483;28;20030;-77
2022/02/23 02:35:23;;;;;;;11.65;3.28;;;5.20;99.90;;;;;;5018870;28;20173;-78
2022/02/23 02:37:49;;;;;;;10.68;3.03;;;5.20;99.90;;;;;;5020747;28;20030;-77
2022/02/23 02:40:16;;;;;;;13.10;3.25;;;5.10;99.90;;;;;;5014252;28;20413;-78
2022/02/23 02:42:42;;;;;;;9.23;3.22;;;5.10;99.90;;;;;;5011208;28;20034;-77
2022/02/23 02:45:09;;;;;;;6.78;3.13;;;5.00;99.90;;;;;;5011582;28;20049;-78
2022/02/23 02:47:35;;;;;;;10.77;4.25;;;4.90;99.90;;;;;;5010901;28;20046;-77
2022/02/23 02:50:02;;;;;;;10.07;3.42;;;4.90;99.90;;;;;;5011280;28;20030;-78
2022/02/23 02:52:28;;;;;;;9.07;3.17;;;4.90;99.90;;;;;;5010986;28;20038;-78
2022/02/23 02:54:55;;;;;;;10.32;3.33;;;4.90;99.90;;;;;;5011132;28;20057;-78
2022/02/23 02:57:21;;;;;;;13.63;4.07;;;4.80;99.90;;;;;;5011364;28;20096;-78
2022/02/23 02:59:47;;;;;;;7.22;3.40;;;4.70;99.90;;;;;;5010936;28;20037;-77
2022/02/23 03:02:13;;;;;;;7.38;3.08;;;4.60;99.90;;;;;;4993721;28;20041;-78
2022/02/23 03:04:39;;;;;;;4.55;2.45;;;4.50;99.90;;;;;;5010539;28;20030;-78
2022/02/23 03:07:05;;;;;;;5.43;2.58;;;4.40;99.90;;;;;;4992910;28;20054;-78
2022/02/23 03:09:32;;;;;;;5.78;3.45;;;4.30;99.90;;;;;;5010152;28;20482;-78
2022/02/23 03:11:58;;;;;;;6.00;2.75;;;4.30;99.90;;;;;;5011019;28;20036;-78
2022/02/23 03:14:24;;;;;;;5.85;2.97;;;4.20;99.90;;;;;;5010525;28;20475;-79
2022/02/23 03:16:50;;;;;;;12.75;3.22;;;4.10;99.90;;;;;;4992924;28;20056;-78
2022/02/23 03:19:16;;;;;;;15.38;3.60;;;4.10;99.90;;;;;;4993238;28;20058;-78
2022/02/23 03:21:43;;;;;;;10.60;4.55;;;4.10;99.90;;;;;;5010065;28;20026;-78
2022/02/23 03:24:09;;;;;;;12.95;4.65;;;4.00;99.90;;;;;;5010559;28;20414;-80
2022/02/23 03:26:35;;;;;;;3.70;2.60;;;4.00;99.90;;;;;;5010118;28;20038;-78
2022/02/23 03:29:01;;;;;;;11.05;3.17;;;4.00;99.90;;;;;;4993361;28;20034;-78
2022/02/23 03:31:27;;;;;;;10.75;3.40;;;4.00;99.90;;;;;;5009786;28;20386;-78
2022/02/23 03:33:54;;;;;;;14.50;4.43;;;4.00;99.90;;;;;;5010571;28;20041;-78
2022/02/23 03:36:20;;;;;;;20.02;4.78;;;4.10;99.90;;;;;;5010252;28;20034;-78
2022/02/23 03:38:46;;;;;;;11.63;5.00;;;4.20;99.90;;;;;;5010033;28;20400;-78
2022/02/23 03:41:13;;;;;;;9.48;4.63;;;4.40;99.90;;;;;;5010173;28;20034;-78
2022/02/23 03:43:40;;;;;;;9.98;4.88;;;4.40;99.90;;;;;;5009817;28;20037;-78
2022/02/23 03:46:07;;;;;;;11.65;4.70;;;4.60;99.90;;;;;;4992162;28;20038;-77
2022/02/23 03:48:33;;;;;;;11.30;4.28;;;4.70;99.90;;;;;;5009798;28;20038;-77
2022/02/23 03:50:59;;;;;;;9.40;5.28;;;4.80;99.90;;;;;;5010499;28;20041;-78
2022/02/23 03:53:26;;;;;;;24.05;5.82;;;4.90;99.90;;;;;;5010403;28;20371;-78
2022/02/23 03:55:52;;;;;;;10.30;5.15;;;5.00;99.90;;;;;;5009750;28;20030;-78
2022/02/23 03:58:18;;;;;;;9.70;4.95;;;5.00;99.90;;;;;;5010237;28;20037;-78
2022/02/23 04:00:44;;;;;;;11.73;4.72;;;5.00;99.90;;;;;;5009301;28;20364;-78
2022/02/23 04:03:10;;;;;;;8.13;4.25;;;5.10;99.90;;;;;;4992345;28;20042;-78
2022/02/23 04:05:36;;;;;;;5.50;3.40;;;5.00;99.90;;;;;;5009448;28;20026;-78
2022/02/23 04:08:03;;;;;;;9.52;4.03;;;4.80;99.90;;;;;;4992747;28;20038;-78
2022/02/23 04:10:29;;;;;;;6.30;3.85;;;4.70;99.90;;;;;;5009828;28;20356;-78
2022/02/23 04:12:55;;;;;;;11.85;5.13;;;4.60;99.90;;;;;;5009257;28;20029;-78
2022/02/23 04:15:21;;;;;;;10.40;6.10;;;4.40;99.90;;;;;;5009937;28;20045;-78
2022/02/23 04:17:47;;;;;;;6.85;5.85;;;4.20;99.90;;;;;;5009151;28;20042;-78
2022/02/23 04:20:14;;;;;;;9.45;4.55;;;4.10;99.90;;;;;;5010032;28;20424;-78
2022/02/23 04:22:42;;;;;;;7.43;3.28;;;4.00;99.90;;;;;;5010617;28;20030;-78
2022/02/23 04:25:08;;;;;;;9.25;3.63;;;3.90;99.90;;;;;;4993067;28;20038;-78
2022/02/23 04:27:35;;;;;;;5.55;3.33;;;3.80;99.90;;;;;;5010238;28;20057;-78
2022/02/23 04:30:01;;;;;;;3.90;2.70;;;3.70;99.90;;;;;;5010658;28;20397;-78
2022/02/23 04:32:27;;;;;;;6.85;3.10;;;3.60;99.90;;;;;;5009765;28;20037;-78
2022/02/23 04:34:53;;;;;;;9.27;3.42;;;3.40;99.90;;;;;;5009228;28;20037;-78
2022/02/23 04:37:21;;;;;;;11.15;3.58;;;3.30;99.90;;;;;;5009852;28;20045;-77
2022/02/23 04:39:47;;;;;;;6.32;3.15;;;3.20;99.90;;;;;;5009137;28;20037;-78
2022/02/23 04:42:13;;;;;;;6.82;3.25;;;3.10;99.90;;;;;;5009830;28;20386;-78
2022/02/23 04:44:39;;;;;;;6.38;3.45;;;3.00;99.90;;;;;;5009675;28;20034;-78
2022/02/23 04:47:06;;;;;;;9.27;3.60;;;2.90;99.90;;;;;;5009978;28;20050;-78
2022/02/23 04:49:32;;;;;;;4.35;2.90;;;2.90;99.90;;;;;;5009804;28;20030;-78
2022/02/23 04:51:58;;;;;;;8.63;2.75;;;2.80;99.90;;;;;;5009430;28;20030;-78
2022/02/23 04:54:24;;;;;;;6.65;3.55;;;2.70;99.90;;;;;;5009471;28;20033;-77
2022/02/23 04:56:50;;;;;;;6.35;3.45;;;2.70;99.90;;;;;;5008997;28;20466;-76
2022/02/23 04:59:16;;;;;;;6.95;3.53;;;2.60;99.90;;;;;;5009669;28;20463;-78
2022/02/23 05:01:42;;;;;;;6.45;4.03;;;2.60;99.90;;;;;;5008876;28;20073;-78
2022/02/23 05:04:09;;;;;;;17.88;10.30;;;2.60;99.90;;;;;;5009214;28;20030;-78
2022/02/23 05:06:35;;;;;;;14.77;6.40;;;2.40;99.90;;;;;;4991474;28;20451;-78
2022/02/23 05:09:01;;;;;;;10.50;7.05;;;2.40;99.90;;;;;;5009222;28;20038;-78
2022/02/23 05:11:28;;;;;;;13.90;6.05;;;2.30;99.90;;;;;;5009083;28;20057;-78
2022/02/23 05:13:54;;;;;;;8.45;5.13;;;2.20;99.90;;;;;;5008718;28;20030;-77
2022/02/23 05:16:21;;;;;;;7.68;4.97;;;2.20;99.90;;;;;;5009632;28;20049;-76
2022/02/23 05:18:48;;;;;;;5.93;4.60;;;2.20;99.90;;;;;;5008266;28;20478;-76
2022/02/23 05:21:14;;;;;;;9.02;6.05;;;2.20;99.90;;;;;;5008709;28;20037;-76
2022/02/23 05:23:40;;;;;;;10.68;5.75;;;2.20;99.90;;;;;;5008588;28;20041;-76
2022/02/23 05:26:09;;;;;;;13.05;5.57;;;2.20;99.90;;;;;;5008990;28;20033;-76
2022/02/23 05:28:35;;;;;;;12.30;5.57;;;2.20;99.90;;;;;;5008594;28;20046;-76
2022/02/23 05:31:02;;;;;;;7.70;4.28;;;2.10;99.90;;;;;;5010080;28;20406;-76
2022/02/23 05:33:28;;;;;;;4.18;3.63;;;2.10;99.90;;;;;;5012328;28;20037;-75
2022/02/23 05:35:54;;;;;;;15.65;4.20;;;2.10;99.90;;;;;;5011262;28;20052;-76
2022/02/23 05:38:23;;;;;;;15.30;4.45;;;2.10;99.90;;;;;;5012167;28;20399;-75
2022/02/23 05:40:49;;;;;;;9.52;5.05;;;2.00;99.90;;;;;;5010963;28;20049;-76
2022/02/23 05:43:15;;;;;;;9.35;4.50;;;1.90;99.90;;;;;;5012293;28;20052;-75
2022/02/23 05:45:41;;;;;;;6.97;4.13;;;1.90;99.90;;;;;;5011694;28;20030;-75
2022/02/23 05:48:07;;;;;;;10.35;4.70;;;1.80;99.90;;;;;;5012099;28;20049;-75
2022/02/23 05:50:34;;;;;;;10.57;4.68;;;1.80;99.90;;;;;;5011143;28;20398;-75
2022/02/23 05:53:00;;;;;;;5.18;3.35;;;1.80;99.90;;;;;;5011444;28;20360;-75
2022/02/23 05:55:26;;;;;;;6.82;3.70;;;1.80;99.90;;;;;;5011708;28;20053;-75
2022/02/23 05:57:52;;;;;;;7.57;3.65;;;1.70;99.90;;;;;;5011471;28;20029;-75
2022/02/23 06:00:19;;;;;;;7.78;3.67;;;1.60;99.90;;;;;;5011596;28;20033;-75
2022/02/23 06:02:45;;;;;;;12.73;4.97;;;1.60;99.90;;;;;;5010895;28;20038;-75
2022/02/23 06:05:11;;;;;;;6.32;4.78;;;1.50;99.90;;;;;;5011598;28;20033;-75
2022/02/23 06:07:37;;;;;;;9.90;6.25;;;1.40;99.90;;;;;;5011701;28;20038;-74
2022/02/23 06:10:05;;;;;;;12.52;5.45;;;1.50;99.90;;;;;;5011410;28;20045;-75
2022/02/23 06:12:31;;;;;;;8.13;5.72;;;1.50;99.90;;;;;;4994479;28;20372;-75
2022/02/23 06:14:57;;;;;;;8.23;5.80;;;1.50;99.90;;;;;;5011063;28;20050;-75
2022/02/23 06:17:24;;;;;;;13.18;6.15;;;1.40;99.90;;;;;;4994247;28;20050;-75
2022/02/23 06:19:51;;;;;;;10.93;8.80;;;1.40;99.90;;;;;;5011028;28;20053;-76
2022/02/23 06:22:18;;;;;;;10.52;6.82;;;1.40;99.90;;;;;;5011361;28;20057;-76
2022/02/23 06:24:44;;;;;;;7.03;5.00;;;1.40;99.90;;;;;;5010818;28;20030;-76
2022/02/23 06:27:12;;;;;;;11.38;7.25;;;1.40;99.90;;;;;;5011633;28;20382;-76
2022/02/23 06:29:38;;;;;;;7.75;6.10;;;1.40;99.90;;;;;;5011516;28;20045;-76
2022/02/23 06:32:06;;;;;;;13.15;8.32;;;1.50;99.90;;;;;;5011672;28;20386;-75
2022/02/23 06:34:34;;;;;;;10.85;6.97;;;1.50;99.90;;;;;;5011527;28;20030;-75
2022/02/23 06:37:02;;;;;;;10.88;7.00;;;1.50;99.90;;;;;;5010754;28;20038;-75
2022/02/23 06:39:33;;;;;;;12.60;7.03;;;1.50;99.90;;;;;;5012260;28;20060;-75
2022/02/23 06:42:01;;;;;;;15.38;9.15;;;1.50;99.90;;;;;;5010230;28;20275;-75
2022/02/23 06:44:28;;;;;;;13.63;7.93;;;1.50;99.90;;;;;;4993742;28;20038;-75
2022/02/23 06:46:57;;;;;;;22.60;8.63;;;1.60;99.90;;;;;;5010749;28;20034;-76
2022/02/23 06:49:25;;;;;;;14.02;7.07;;;1.60;99.90;;;;;;5012269;28;20041;-75
2022/02/23 06:51:57;;;;;;;12.32;6.70;;;1.60;99.90;;;;;;5015763;28;20036;-75
2022/02/23 06:54:28;;;;;;;17.58;7.35;;;1.60;99.90;;;;;;5017146;28;20038;-75
2022/02/23 06:56:54;;;;;;;7.90;6.40;;;1.60;99.90;;;;;;5011584;28;20101;-75
2022/02/23 06:59:21;;;;;;;7.95;6.97;;;1.60;99.90;;;;;;5011728;28;20030;-76
2022/02/23 07:01:47;;;;;;;10.20;6.72;;;1.70;99.90;;;;;;5010863;28;20378;-75
2022/02/23 07:04:14;;;;;;;18.33;8.70;;;1.80;99.90;;;;;;5011276;28;20045;-75
2022/02/23 07:06:41;;;;;;;10.63;7.13;;;1.80;99.90;;;;;;5010949;28;20387;-74
2022/02/23 07:09:08;;;;;;;13.52;7.55;;;1.80;99.90;;;;;;5010994;28;20475;-75
2022/02/23 07:11:36;;;;;;;22.67;9.10;;;1.90;99.90;;;;;;5010734;28;20041;-75
2022/02/23 07:14:04;;;;;;;15.15;8.65;;;2.00;99.90;;;;;;5010151;28;20069;-75
2022/02/23 07:16:30;;;;;;;9.82;8.48;;;2.00;99.90;;;;;;4992452;28;20482;-75
2022/02/23 07:18:56;;;;;;;9.45;8.45;;;2.20;99.90;;;;;;5010042;28;20038;-75
2022/02/23 07:21:22;;;;;;;15.23;9.68;;;2.70;99.90;;;;;;5011333;28;20041;-75
2022/02/23 07:23:49;;;;;;;13.93;10.18;;;3.10;99.90;;;;;;5009928;28;20041;-75
2022/02/23 07:26:16;;;;;;;19.30;9.68;;;3.30;99.90;;;;;;5010200;28;20506;-75
2022/02/23 07:28:44;;;;;;;18.15;10.80;;;3.50;99.90;;;;;;5011110;28;20038;-78
2022/02/23 07:31:13;;;;;;;10.77;8.52;;;3.80;99.90;;;;;;5010767;28;20477;-78
2022/02/23 07:33:40;;;;;;;10.10;8.48;;;3.90;99.90;;;;;;5010677;28;20034;-78
2022/02/23 07:36:07;;;;;;;17.77;8.25;;;3.80;99.90;;;;;;5010372;28;20034;-78
2022/02/23 07:38:36;;;;;;;18.58;9.52;;;3.90;99.90;;;;;;5010766;28;20030;-77
2022/02/23 07:41:02;;;;;;;16.63;14.60;;;4.50;99.90;;;;;;5010126;28;20030;-77
2022/02/23 07:43:29;;;;;;;14.27;10.32;;;4.80;99.90;;;;;;5015549;28;20038;-78
2022/02/23 07:45:57;;;;;;;13.43;10.05;;;5.10;99.90;;;;;;5013955;28;20367;-79
2022/02/23 07:48:23;;;;;;;10.55;9.55;;;5.20;99.90;;;;;;5011506;28;20038;-78
2022/02/23 07:50:50;;;;;;;15.38;11.40;;;5.40;99.90;;;;;;5010591;28;20050;-78
2022/02/23 07:53:16;;;;;;;15.10;9.63;;;6.10;99.90;;;;;;5010307;28;20037;-79
2022/02/23 07:55:42;;;;;;;11.68;8.88;;;6.50;99.90;;;;;;5009506;28;20105;-79
2022/02/23 07:58:09;;;;;;;10.77;9.77;;;6.70;99.90;;;;;;5009420;28;20034;-79
2022/02/23 08:00:35;;;;;;;11.48;8.90;;;7.20;99.90;;;;;;5010057;28;20026;-80
2022/02/23 08:03:02;;;;;;;11.70;8.63;;;7.40;99.90;;;;;;5009341;28;20041;-79
2022/02/23 08:05:29;;;;;;;13.77;8.50;;;7.60;99.90;;;;;;5010047;28;20037;-79
2022/02/23 08:07:57;;;;;;;15.85;13.07;;;8.00;99.90;;;;;;5010542;28;20050;-79
2022/02/23 08:10:26;;;;;;;13.35;11.52;;;8.20;99.90;;;;;;5010278;28;20034;-79
2022/02/23 08:12:55;;;;;;;12.77;10.40;;;8.50;99.90;;;;;;5009763;28;20505;-79
2022/02/23 08:20:52;;;;;;;13.88;8.13;;;9.20;99.90;;;;;;5009472;28;20053;-80
2022/02/23 08:23:19;;;;;;;8.32;5.68;;;9.40;99.90;;;;;;5010209;28;20387;-80
2022/02/23 08:25:45;;;;;;;8.90;7.10;;;9.60;99.90;;;;;;5009926;28;20037;-80
2022/02/23 08:28:11;;;;;;;14.15;7.40;;;9.80;99.90;;;;;;5009743;28;20403;-80
2022/02/23 08:30:38;;;;;;;11.18;6.15;;;10.00;99.90;;;;;;5010165;28;20038;-81
2022/02/23 08:33:05;;;;;;;9.52;7.20;;;10.30;99.90;;;;;;4991742;28;20044;-81
2022/02/23 08:35:32;;;;;;;15.40;6.85;;;10.60;99.90;;;;;;5009604;28;20034;-81
2022/02/23 08:37:59;;;;;;;8.40;5.55;;;11.00;99.80;;;;;;5009599;28;20042;-81
2022/02/23 08:40:26;;;;;;;14.07;5.60;;;11.70;95.40;;;;;;5009795;28;20359;-81
2022/02/23 08:42:54;;;;;;;13.32;5.63;;;12.10;92.90;;;;;;5009544;28;20030;-81
2022/02/23 08:45:20;;;;;;;12.38;6.93;;;12.30;93.10;;;;;;5009835;28;20026;-81
2022/02/23 08:47:46;;;;;;;11.65;6.95;;;12.80;91.80;;;;;;5011129;28;20064;-78
2022/02/23 08:50:13;;;;;;;9.27;5.65;;;13.00;91.50;;;;;;5009398;28;20026;-79
2022/02/23 08:52:39;;;;;;;6.85;5.53;;;13.30;84.10;;;;;;5009420;28;20030;-78
2022/02/23 08:55:08;;;;;;;10.27;5.32;;;13.20;81.50;;;;;;5008764;28;20033;-78
2022/02/23 08:57:34;;;;;;;6.95;5.32;;;12.90;82.80;;;;;;5009555;28;20045;-79
2022/02/23 09:00:00;;;;;;;12.45;6.55;;;13.50;80.20;;;;;;5009608;28;20030;-78
2022/02/23 09:02:26;;;;;;;7.30;5.10;;;13.20;84.40;;;;;;5009645;28;20034;-79
2022/02/23 09:04:52;;;;;;;7.57;5.65;;;13.50;80.00;;;;;;4991723;28;20375;-78
2022/02/23 09:07:19;;;;;;;8.27;5.22;;;13.80;75.90;;;;;;5012472;28;20459;-79
2022/02/23 09:09:45;;;;;;;10.13;5.82;;;13.50;78.10;;;;;;5013762;28;20041;-78
2022/02/23 09:12:12;;;;;;;12.27;6.22;;;14.10;73.30;;;;;;4995350;28;20096;-79
2022/02/23 09:14:38;;;;;;;6.88;4.63;;;14.30;74.20;;;;;;5012229;28;20046;-79
2022/02/23 09:17:05;;;;;;;8.00;4.97;;;13.90;75.30;;;;;;5012495;28;20579;-79
2022/02/23 09:19:31;;;;;;;6.97;3.05;;;14.30;72.70;;;;;;5012552;28;20030;-79
2022/02/23 09:21:57;;;;;;;8.07;2.88;;;13.70;68.90;;;;;;4994974;28;20041;-78
2022/02/23 09:24:23;;;;;;;5.43;2.80;;;12.10;72.40;;;;;;5012710;28;20463;-79
2022/02/23 09:26:50;;;;;;;12.68;3.10;;;12.40;74.80;;;;;;5012593;28;20026;-76
2022/02/23 09:29:16;;;;;;;5.47;3.08;;;12.00;73.80;;;;;;5012598;28;20115;-79
2022/02/23 09:31:42;;;;;;;9.00;2.80;;;13.40;75.50;;;;;;5013839;28;20034;-79
2022/02/23 09:34:08;;;;;;;6.60;2.63;;;13.50;68.10;;;;;;5013267;28;20030;-79
2022/02/23 09:36:38;;;;;;;5.40;2.50;;;12.70;68.70;;;;;;5012912;28;20041;-79
2022/02/23 09:39:04;;;;;;;10.47;2.97;;;12.20;70.90;;;;;;5012099;28;20048;-79
2022/02/23 09:41:31;;;;;;;7.72;2.72;;;12.30;70.10;;;;;;5012755;28;20030;-79
2022/02/23 09:43:57;;;;;;;5.70;2.30;;;12.50;70.60;;;;;;4994058;28;20053;-79
2022/02/23 09:46:24;;;;;;;6.05;2.33;;;12.90;66.60;;;;;;5012254;28;20053;-79
2022/02/23 09:48:52;;;;;;;10.73;2.53;;;12.40;68.30;;;;;;5012166;28;20038;-78
2022/02/23 09:51:19;;;;;;;3.80;1.80;;;11.80;70.40;;;;;;5012248;28;20033;-79
2022/02/23 09:53:45;;;;;;;5.30;2.08;;;12.30;68.70;;;;;;5012978;28;20503;-79
2022/02/23 09:56:14;;;;;;;6.85;2.17;;;11.70;69.30;;;;;;4994011;28;20573;-78
2022/02/23 09:58:41;;;;;;;6.65;2.42;;;10.80;69.50;;;;;;5013593;28;20038;-77
2022/02/23 10:01:07;;;;;;;9.40;2.83;;;10.40;69.90;;;;;;4994321;28;20371;-78
2022/02/23 10:03:35;;;;;;;6.05;2.75;;;10.20;72.40;;;;;;5012700;28;20049;-81
2022/02/23 10:06:01;;;;;;;5.80;2.22;;;10.10;72.00;;;;;;5012835;28;20046;-80
2022/02/23 10:08:33;;;;;;;13.52;3.00;;;10.00;70.70;;;;;;4995548;28;20478;-80
2022/02/23 10:11:01;;;;;;;12.65;2.50;;;9.90;69.20;;;;;;5012531;28;20033;-80
2022/02/23 10:13:28;;;;;;;4.07;2.38;;;9.80;71.10;;;;;;4996047;28;20053;-79
2022/02/23 10:15:58;;;;;;;11.63;2.58;;;9.90;70.30;;;;;;4996111;28;20072;-79
2022/02/23 10:18:28;;;;;;;9.30;3.07;;;10.00;69.80;;;;;;4994055;28;20050;-80
2022/02/23 10:20:54;;;;;;;6.22;2.33;;;10.20;69.30;;;;;;5012455;28;20045;-79
2022/02/23 10:23:23;;;;;;;6.95;3.33;;;10.10;70.30;;;;;;5014025;28;20041;-78
2022/02/23 10:25:52;;;;;;;9.23;2.58;;;10.00;70.90;;;;;;5012423;28;20034;-81
2022/02/23 10:28:24;;;;;;;13.68;2.95;;;9.90;72.60;;;;;;5011340;28;20035;-80
2022/02/23 10:30:53;;;;;;;15.38;13.75;;;10.20;73.70;;;;;;5012908;28;20030;-80
2022/02/23 10:33:22;;;;;;;6.45;3.58;;;10.50;70.90;;;;;;4994562;28;20497;-80
2022/02/23 10:36:10;;;;;;;9.40;2.70;;;10.50;71.10;;;;;;4995285;28;20041;-78
2022/02/23 10:38:39;;;;;;;10.80;3.35;;;10.40;69.70;;;;;;5012823;28;20355;-79
2022/02/23 10:41:08;;;;;;;10.18;3.78;;;10.60;71.60;;;;;;5011059;28;20042;-79
2022/02/23 10:43:40;;;;;;;4.45;2.45;;;10.40;71.10;;;;;;5012454;28;20034;-79
2022/02/23 10:46:09;;;;;;;7.35;4.00;;;10.40;70.70;;;;;;4994314;28;20041;-78
2022/02/23 10:48:40;;;;;;;7.43;4.15;;;10.40;71.20;;;;;;5011925;28;20053;-78
2022/02/23 10:51:10;;;;;;;7.93;3.65;;;10.90;74.50;;;;;;5012359;28;20454;-79
2022/02/23 10:53:37;;;;;;;5.97;3.80;;;11.40;72.40;;;;;;5012858;28;20477;-79
2022/02/23 10:56:19;;;;;;;8.82;4.28;;;11.80;71.40;;;;;;5011733;28;20038;-78
2022/02/23 10:58:45;;;;;;;11.90;4.82;;;11.50;73.50;;;;;;5011384;28;20034;-79
2022/02/23 11:01:12;;;;;;;6.55;3.97;;;11.70;73.00;;;;;;4993697;28;20034;-79
2022/02/23 11:03:39;;;;;;;6.85;3.63;;;11.70;71.70;;;;;;5011231;28;20026;-78
2022/02/23 11:06:07;;;;;;;7.63;3.47;;;11.70;71.10;;;;;;5010312;28;20041;-79
2022/02/23 11:08:33;;;;;;;7.90;3.63;;;11.70;72.20;;;;;;5011169;28;20522;-79
2022/02/23 11:11:03;;;;;;;5.82;2.72;;;11.50;72.70;;;;;;5010601;28;20375;-79
2022/02/23 11:13:30;;;;;;;17.67;9.55;;;11.60;70.80;;;;;;5011025;28;20034;-79
2022/02/23 11:15:56;;;;;;;4.80;2.95;;;11.40;72.60;;;;;;5011956;28;20038;-77
2022/02/23 11:18:23;;;;;;;4.80;3.10;;;11.40;70.80;;;;;;5012002;28;20041;-78
2022/02/23 11:20:50;;;;;;;11.80;2.72;;;11.60;73.30;;;;;;4997321;28;20045;-78
2022/02/23 11:23:19;;;;;;;5.25;2.60;;;11.50;70.50;;;;;;5012199;28;20053;-79
2022/02/23 11:25:48;;;;;;;4.47;2.65;;;11.50;71.00;;;;;;5017784;28;20042;-78
2022/02/23 11:28:25;;;;;;;6.90;2.83;;;11.50;69.10;;;;;;5022427;28;20052;-78
2022/02/23 11:30:54;;;;;;;7.60;3.13;;;11.10;70.30;;;;;;5014659;28;20033;-78
2022/02/23 11:33:22;;;;;;;5.40;3.03;;;11.10;72.80;;;;;;4997239;28;20038;-78
2022/02/23 11:35:51;;;;;;;9.93;2.63;;;11.40;71.40;;;;;;5011994;28;20038;-78
2022/02/23 11:38:20;;;;;;;5.35;3.40;;;11.60;70.40;;;;;;5010828;28;20652;-77
2022/02/23 11:40:48;;;;;;;3.97;2.25;;;11.50;70.60;;;;;;4994688;28;20049;-78
2022/02/23 11:43:47;;;;;;;6.50;1.88;;;11.30;68.80;;;;;;5010213;28;20040;-78
2022/02/23 11:49:17;;;;;;;6.10;2.08;;;11.40;70.00;;;;;;5010871;28;20041;-76
2022/02/23 11:52:11;;;;;;;9.35;1.98;;;11.30;69.20;;;;;;5011029;28;20386;-78
2022/02/23 11:55:15;;;;;;;7.18;2.47;;;11.40;69.00;;;;;;5010870;28;20026;-78
2022/02/23 11:57:56;;;;;;;5.93;2.13;;;11.40;69.40;;;;;;5010619;28;20386;-78
2022/02/23 12:00:44;;;;;;;9.60;2.13;;;11.60;67.50;;;;;;5002415;28;20041;-78
2022/02/23 12:03:21;;;;;;;5.93;1.88;;;11.60;67.60;;;;;;5009761;28;20033;-78
2022/02/23 12:05:56;;;;;;;4.20;1.42;;;11.70;65.50;;;;;;5010104;28;20037;-77
2022/02/23 12:08:43;;;;;;;2.95;1.55;;;11.40;66.20;;;;;;5009574;28;20493;-78
2022/02/23 12:11:15;;;;;;;3.83;1.38;;;11.40;66.40;;;;;;5009752;28;20041;-79
2022/02/23 12:13:58;;;;;;;2.63;1.48;;;11.60;65.60;;;;;;4991756;28;20046;-77
2022/02/23 12:16:48;;;;;;;4.03;1.83;;;11.80;66.00;;;;;;5010715;28;20050;-78
2022/02/23 12:19:16;;;;;;;2.88;1.65;;;11.80;65.90;;;;;;5012739;28;20054;-78
2022/02/23 12:21:53;;;;;;;6.53;2.83;;;12.10;65.40;;;;;;5014839;28;20060;-79
2022/02/23 12:24:23;;;;;;;2.88;2.03;;;12.40;62.70;;;;;;5013018;28;20043;-79
2022/02/23 12:26:53;;;;;;;3.85;2.45;;;12.20;61.70;;;;;;4995680;28;20159;-78
2022/02/23 12:29:29;;;;;;;3.90;3.50;;;11.90;64.30;;;;;;5011084;28;20050;-79
2022/02/23 12:32:06;;;;;;;7.03;6.15;;;11.60;64.00;;;;;;5009573;28;20033;-77
2022/02/23 12:34:33;;;;;;;6.43;1.95;;;11.30;65.40;;;;;;5010817;28;20054;-76
2022/02/23 12:37:03;;;;;;;3.42;1.45;;;11.10;64.80;;;;;;5009511;28;20490;-77
2022/02/23 12:39:30;;;;;;;2.83;1.58;;;11.00;65.70;;;;;;5009317;28;20034;-77
2022/02/23 12:42:02;;;;;;;5.20;1.95;;;11.10;65.40;;;;;;5009040;28;20463;-76
2022/02/23 12:44:34;;;;;;;4.97;1.95;;;11.20;65.60;;;;;;5009338;28;20390;-77
2022/02/23 12:47:06;;;;;;;3.15;1.98;;;11.50;65.60;;;;;;5009470;28;20037;-77
2022/02/23 12:49:33;;;;;;;5.10;2.90;;;11.90;64.00;;;;;;5009461;28;20045;-77
2022/02/23 12:52:01;;;;;;;8.32;3.28;;;12.10;64.00;;;;;;5009752;28;20382;-77
2022/02/23 12:54:28;;;;;;;6.38;2.40;;;12.00;64.00;;;;;;5009117;28;20045;-78
2022/02/23 12:57:00;;;;;;;3.60;1.33;;;11.80;62.80;;;;;;5009263;28;20030;-76
2022/02/23 12:59:29;;;;;;;2.67;1.42;;;11.50;61.30;;;;;;5008525;28;20363;-77
2022/02/23 13:01:58;;;;;;;5.40;1.40;;;11.50;62.50;;;;;;5009445;28;20490;-76